createdAt,value
2023-02-18T00:01:15.868Z,101464.19
2023-02-18T00:03:42.301Z,101465.19
2023-02-18T00:06:15.570Z,101465.25
2023-02-18T00:08:42.271Z,101469.16
2023-02-18T00:11:08.970Z,101468.97
2023-02-18T00:13:35.503Z,101466.09
2023-02-18T00:16:02.386Z,101458.50
2023-02-18T00:18:28.728Z,101465.91
2023-02-18T00:20:55.009Z,101460.91
2023-02-18T00:23:21.281Z,101459.78
2023-02-18T00:25:47.595Z,101470.69
2023-02-18T00:28:13.913Z,101459.84
2023-02-18T00:30:43.462Z,101456.19
2023-02-18T00:33:09.736Z,101453.91
2023-02-18T00:35:36.036Z,101445.00
2023-02-18T00:38:02.323Z,101434.50
2023-02-18T00:40:28.598Z,101431.38
2023-02-18T00:42:54.878Z,101431.38
2023-02-18T00:45:21.184Z,101418.84
2023-02-18T00:47:47.469Z,101427.66
2023-02-18T00:50:13.738Z,101416.38
2023-02-18T00:52:40.029Z,101416.25
2023-02-18T00:55:06.336Z,101412.75
2023-02-18T00:57:32.672Z,101404.75
2023-02-18T00:59:58.938Z,101404.25
2023-02-18T01:02:25.209Z,101402.03
2023-02-18T01:04:51.568Z,101401.13
2023-02-18T01:07:17.856Z,101395.84
2023-02-18T01:09:44.160Z,101402.94
2023-02-18T01:12:10.437Z,101400.63
2023-02-18T01:14:36.719Z,101408.88
2023-02-18T01:17:02.986Z,101408.91
2023-02-18T01:19:29.270Z,101405.00
2023-02-18T01:21:55.562Z,101409.16
2023-02-18T01:24:21.826Z,101404.72
2023-02-18T01:26:48.177Z,101402.66
2023-02-18T01:29:14.582Z,101407.59
2023-02-18T01:31:40.955Z,101400.97
2023-02-18T01:34:07.267Z,101405.78
2023-02-18T01:36:33.554Z,101394.91
2023-02-18T01:39:00.373Z,101384.81
2023-02-18T01:41:26.664Z,101395.44
2023-02-18T01:44:16.272Z,101383.53
2023-02-18T01:46:42.615Z,101385.75
2023-02-18T01:49:08.911Z,101383.78
2023-02-18T01:51:36.263Z,101378.63
2023-02-18T01:54:13.739Z,101374.72
2023-02-18T01:56:41.607Z,101380.16
2023-02-18T01:59:09.392Z,101370.09
2023-02-18T02:01:35.710Z,101379.91
2023-02-18T02:04:02.041Z,101379.81
2023-02-18T02:06:28.391Z,101375.91
2023-02-18T02:08:55.657Z,101370.34
2023-02-18T02:11:30.806Z,101364.53
2023-02-18T02:14:03.261Z,101359.34
2023-02-18T02:16:55.855Z,101369.56
2023-02-18T02:19:43.310Z,101360.63
2023-02-18T02:22:15.613Z,101367.38
2023-02-18T02:24:41.880Z,101366.97
2023-02-18T02:27:11.105Z,101357.53
2023-02-18T02:29:58.189Z,101356.63
2023-02-18T02:32:24.451Z,101352.75
2023-02-18T02:35:03.394Z,101345.50
2023-02-18T02:37:49.889Z,101333.34
2023-02-18T02:40:35.034Z,101327.78
2023-02-18T02:43:04.266Z,101337.47
2023-02-18T02:45:50.014Z,101334.63
2023-02-18T02:48:21.269Z,101327.38
2023-02-18T02:50:55.064Z,101324.81
2023-02-18T02:53:28.614Z,101323.75
2023-02-18T02:55:57.917Z,101324.16
2023-02-18T02:58:24.215Z,101309.53
2023-02-18T03:01:05.796Z,101309.16
2023-02-18T03:03:44.495Z,101306.69
2023-02-18T03:06:21.880Z,101306.19
2023-02-18T03:08:48.159Z,101300.75
2023-02-18T03:11:14.872Z,101289.09
2023-02-18T03:13:41.089Z,101282.22
2023-02-18T03:16:07.884Z,101280.16
2023-02-18T03:18:34.297Z,101281.19
2023-02-18T03:21:06.727Z,101268.78
2023-02-18T03:23:34.825Z,101261.44
2023-02-18T03:26:01.107Z,101262.56
2023-02-18T03:28:28.513Z,101251.59
2023-02-18T03:31:13.938Z,101251.72
2023-02-18T03:33:51.565Z,101247.44
2023-02-18T03:36:18.657Z,101249.66
2023-02-18T03:38:53.850Z,101247.44
2023-02-18T03:41:20.129Z,101246.03
2023-02-18T03:43:53.369Z,101249.53
2023-02-18T03:46:19.747Z,101245.09
2023-02-18T03:48:46.087Z,101230.09
2023-02-18T03:51:12.484Z,101232.72
2023-02-18T03:53:38.791Z,101234.13
2023-02-18T03:56:05.476Z,101223.91
2023-02-18T03:58:31.807Z,101224.06
2023-02-18T04:00:58.106Z,101218.25
2023-02-18T04:03:24.409Z,101220.56
2023-02-18T04:05:50.706Z,101216.94
2023-02-18T04:08:17.014Z,101228.34
2023-02-18T04:10:43.363Z,101225.88
2023-02-18T04:13:09.636Z,101220.19
2023-02-18T04:15:36.902Z,101212.53
2023-02-18T04:18:03.219Z,101209.44
2023-02-18T04:20:29.542Z,101199.34
2023-02-18T04:22:55.822Z,101198.03
2023-02-18T04:25:22.095Z,101200.91
2023-02-18T04:27:48.378Z,101193.91
2023-02-18T04:30:16.777Z,101190.56
2023-02-18T04:32:44.818Z,101182.81
2023-02-18T04:35:11.089Z,101184.88
2023-02-18T04:37:38.421Z,101164.53
2023-02-18T04:40:05.042Z,101174.53
2023-02-18T04:42:31.366Z,101162.34
2023-02-18T04:44:57.647Z,101161.84
2023-02-18T04:47:24.021Z,101155.13
2023-02-18T04:49:50.312Z,101154.06
2023-02-18T04:52:16.628Z,101153.53
2023-02-18T04:54:42.899Z,101152.25
2023-02-18T04:57:09.198Z,101150.06
2023-02-18T04:59:35.599Z,101150.19
2023-02-18T05:02:02.484Z,101137.13
2023-02-18T05:04:28.856Z,101130.78
2023-02-18T05:06:55.165Z,101142.47
2023-02-18T05:09:21.491Z,101147.00
2023-02-18T05:11:47.830Z,101139.88
2023-02-18T05:14:14.491Z,101140.91
2023-02-18T05:16:40.788Z,101142.19
2023-02-18T05:19:07.060Z,101137.81
2023-02-18T05:21:34.008Z,101140.41
2023-02-18T05:24:00.267Z,101134.44
2023-02-18T05:26:26.614Z,101133.41
2023-02-18T05:28:52.890Z,101125.78
2023-02-18T05:31:19.531Z,101127.06
2023-02-18T05:33:45.881Z,101119.06
2023-02-18T05:36:12.163Z,101118.78
2023-02-18T05:38:38.442Z,101106.38
2023-02-18T05:41:04.745Z,101097.97
2023-02-18T05:43:31.082Z,101093.59
2023-02-18T05:45:57.363Z,101097.22
2023-02-18T05:48:23.696Z,101084.53
2023-02-18T05:50:53.769Z,101070.06
2023-02-18T05:53:20.044Z,101077.81
2023-02-18T05:55:46.325Z,101074.22
2023-02-18T05:58:13.582Z,101064.13
2023-02-18T06:00:39.851Z,101076.81
2023-02-18T06:03:06.132Z,101060.00
2023-02-18T06:05:32.436Z,101066.72
2023-02-18T06:07:58.779Z,101062.88
2023-02-18T06:10:25.050Z,101061.44
2023-02-18T06:12:51.325Z,101066.47
2023-02-18T06:15:17.639Z,101044.50
2023-02-18T06:17:43.938Z,101057.94
2023-02-18T06:20:10.428Z,101054.84
2023-02-18T06:22:36.713Z,101057.94
2023-02-18T06:25:03.001Z,101049.28
2023-02-18T06:27:29.324Z,101042.69
2023-02-18T06:29:55.588Z,101053.03
2023-02-18T06:32:22.047Z,101061.31
2023-02-18T06:34:48.474Z,101052.25
2023-02-18T06:37:14.798Z,101058.72
2023-02-18T06:39:41.075Z,101062.06
2023-02-18T06:42:07.410Z,101071.41
2023-02-18T06:44:33.706Z,101066.47
2023-02-18T06:47:00.019Z,101062.19
2023-02-18T06:49:26.308Z,101065.19
2023-02-18T06:51:52.594Z,101060.81
2023-02-18T06:54:18.869Z,101059.63
2023-02-18T06:56:45.152Z,101061.31
2023-02-18T06:59:11.663Z,101063.66
2023-02-18T07:01:37.971Z,101055.66
2023-02-18T07:04:04.336Z,101052.78
2023-02-18T07:06:30.711Z,101049.97
2023-02-18T07:08:56.998Z,101047.50
2023-02-18T07:11:23.277Z,101044.38
2023-02-18T07:13:49.593Z,101041.69
2023-02-18T07:16:15.888Z,101043.72
2023-02-18T07:18:42.191Z,101042.03
2023-02-18T07:21:08.510Z,101042.44
2023-02-18T07:23:34.824Z,101048.53
2023-02-18T07:26:05.601Z,101041.41
2023-02-18T07:28:32.077Z,101039.34
2023-02-18T07:30:58.385Z,101048.09
2023-02-18T07:33:24.668Z,101041.28
2023-02-18T07:35:57.949Z,101060.28
2023-02-18T07:38:24.454Z,101041.28
2023-02-18T07:40:50.891Z,101060.41
2023-02-18T07:43:17.249Z,101056.38
2023-02-18T07:45:43.615Z,101058.75
2023-02-18T07:48:10.355Z,101055.66
2023-02-18T07:50:39.291Z,101057.97
2023-02-18T07:53:05.796Z,101055.13
2023-02-18T07:55:50.272Z,101048.91
2023-02-18T07:58:20.941Z,101045.31
2023-02-18T08:00:50.273Z,101058.75
2023-02-18T08:03:20.496Z,101051.25
2023-02-18T08:05:48.154Z,101049.06
2023-02-18T08:08:15.334Z,101068.94
2023-02-18T08:10:42.009Z,101065.19
2023-02-18T08:13:08.434Z,101072.06
2023-02-18T08:15:34.692Z,101069.88
2023-02-18T08:18:01.422Z,101070.34
2023-02-18T08:20:30.446Z,101065.81
2023-02-18T08:22:56.919Z,101049.91
2023-02-18T08:25:29.436Z,101051.72
2023-02-18T08:27:56.128Z,101040.16
2023-02-18T08:30:22.459Z,101054.78
2023-02-18T08:32:48.774Z,101051.16
2023-02-18T08:35:15.040Z,101054.13
2023-02-18T08:37:52.578Z,101061.50
2023-02-18T08:40:20.159Z,101058.66
2023-02-18T08:42:46.462Z,101044.19
2023-02-18T08:45:12.745Z,101043.66
2023-02-18T08:48:17.944Z,101029.97
2023-02-18T08:50:26.466Z,101043.72
2023-02-18T08:52:52.938Z,101039.56
2023-02-18T08:55:22.152Z,101030.66
2023-02-18T08:57:48.833Z,101020.41
2023-02-18T09:00:15.856Z,101015.63
2023-02-18T09:02:42.256Z,101029.22
2023-02-18T09:05:09.547Z,101010.94
2023-02-18T09:07:36.601Z,101012.28
2023-02-18T09:10:03.571Z,101008.13
2023-02-18T09:12:29.863Z,101030.63
2023-02-18T09:14:56.197Z,101013.94
2023-02-18T09:17:22.478Z,101016.53
2023-02-18T09:19:48.833Z,101016.34
2023-02-18T09:22:15.100Z,101023.69
2023-02-18T09:24:41.734Z,101040.78
2023-02-18T09:27:10.941Z,101041.69
2023-02-18T09:29:38.466Z,101035.66
2023-02-18T09:32:05.132Z,101047.53
2023-02-18T09:34:31.469Z,101033.84
2023-02-18T09:36:57.777Z,101035.50
2023-02-18T09:39:24.062Z,101031.63
2023-02-18T09:41:51.479Z,101045.22
2023-02-18T09:44:34.170Z,101020.41
2023-02-18T09:47:03.433Z,101007.72
2023-02-18T09:49:33.541Z,101013.28
2023-02-18T09:52:06.371Z,101012.34
2023-02-18T09:54:32.771Z,101026.16
2023-02-18T09:56:59.072Z,101025.56
2023-02-18T09:59:25.430Z,101026.75
2023-02-18T10:01:52.160Z,101033.72
2023-02-18T10:04:18.989Z,101035.78
2023-02-18T10:06:45.937Z,101036.81
2023-02-18T10:09:19.265Z,101043.53
2023-02-18T10:11:46.549Z,101051.66
2023-02-18T10:14:13.305Z,101039.41
2023-02-18T10:16:39.766Z,101037.72
2023-02-18T10:19:12.650Z,101038.09
2023-02-18T10:21:38.935Z,101039.66
2023-02-18T10:24:17.361Z,101035.28
2023-02-18T10:26:43.856Z,101032.16
2023-02-18T10:29:14.240Z,101031.13
2023-02-18T10:31:41.210Z,101027.41
2023-02-18T10:34:12.726Z,101027.25
2023-02-18T10:36:46.448Z,101029.59
2023-02-18T10:39:33.656Z,101037.22
2023-02-18T10:42:12.870Z,101043.53
2023-02-18T10:44:52.082Z,101051.28
2023-02-18T10:47:27.654Z,101065.59
2023-02-18T10:49:56.805Z,101072.47
2023-02-18T10:52:23.083Z,101058.50
2023-02-18T10:55:19.042Z,101069.47
2023-02-18T10:57:46.278Z,101066.53
2023-02-18T11:00:19.029Z,101085.25
2023-02-18T11:02:45.508Z,101082.28
2023-02-18T11:05:27.196Z,101083.31
2023-02-18T11:07:54.547Z,101083.94
2023-02-18T11:10:29.382Z,101081.78
2023-02-18T11:12:56.800Z,101087.56
2023-02-18T11:15:26.663Z,101096.97
2023-02-18T11:17:54.322Z,101107.94
2023-02-18T11:20:23.692Z,101092.19
2023-02-18T11:22:50.137Z,101089.75
2023-02-18T11:25:23.336Z,101086.00
2023-02-18T11:27:55.436Z,101090.03
2023-02-18T11:30:25.694Z,101100.38
2023-02-18T11:32:53.998Z,101093.13
2023-02-18T11:35:20.954Z,101084.06
2023-02-18T11:37:47.489Z,101086.66
2023-02-18T11:40:24.135Z,101094.66
2023-02-18T11:42:50.428Z,101088.47
2023-02-18T11:45:29.868Z,101085.88
2023-02-18T11:48:06.866Z,101092.19
2023-02-18T11:50:34.215Z,101086.38
2023-02-18T11:53:00.566Z,101092.84
2023-02-18T11:55:27.589Z,101087.81
2023-02-18T11:58:00.892Z,101096.84
2023-02-18T12:00:35.626Z,101087.97
2023-02-18T12:03:02.062Z,101095.97
2023-02-18T12:05:28.721Z,101099.69
2023-02-18T12:08:11.555Z,101100.22
2023-02-18T12:10:42.308Z,101090.78
2023-02-18T12:13:20.067Z,101091.81
2023-02-18T12:15:46.268Z,101086.78
2023-02-18T12:18:16.504Z,101081.91
2023-02-18T12:20:53.121Z,101090.03
2023-02-18T12:23:22.391Z,101092.59
2023-02-18T12:25:48.604Z,101099.06
2023-02-18T12:28:34.000Z,101090.91
2023-02-18T12:31:12.766Z,101082.00
2023-02-18T12:33:57.762Z,101098.25
2023-02-18T12:36:33.009Z,101103.13
2023-02-18T12:39:02.930Z,101093.50
2023-02-18T12:41:32.172Z,101102.44
2023-02-18T12:44:01.766Z,101095.56
2023-02-18T12:46:33.117Z,101091.94
2023-02-18T12:49:02.422Z,101103.16
2023-02-18T12:51:47.523Z,101114.25
2023-02-18T12:54:18.454Z,101101.88
2023-02-18T12:56:47.734Z,101104.13
2023-02-18T12:59:20.117Z,101097.38
2023-02-18T13:01:58.517Z,101106.56
2023-02-18T13:04:44.997Z,101100.38
2023-02-18T13:07:14.010Z,101093.28
2023-02-18T13:09:47.391Z,101086.03
2023-02-18T13:12:22.829Z,101087.44
2023-02-18T13:14:49.576Z,101089.66
2023-02-18T13:17:16.326Z,101090.78
2023-02-18T13:19:55.770Z,101085.78
2023-02-18T13:22:23.035Z,101099.34
2023-02-18T13:24:49.720Z,101080.22
2023-02-18T13:27:21.981Z,101087.19
2023-02-18T13:29:51.345Z,101084.09
2023-02-18T13:32:21.296Z,101081.63
2023-02-18T13:34:52.467Z,101079.41
2023-02-18T13:37:33.175Z,101086.16
2023-02-18T13:39:59.439Z,101070.41
2023-02-18T13:42:31.817Z,101076.31
2023-02-18T13:44:57.994Z,101074.25
2023-02-18T13:47:37.495Z,101080.47
2023-02-18T13:50:22.110Z,101080.84
2023-02-18T13:52:48.875Z,101070.41
2023-02-18T13:55:21.836Z,101078.94
2023-02-18T13:57:48.486Z,101081.13
2023-02-18T14:00:17.170Z,101079.94
2023-02-18T14:02:55.559Z,101093.53
2023-02-18T14:05:23.651Z,101084.09
2023-02-18T14:08:04.177Z,101092.34
2023-02-18T14:10:35.074Z,101092.75
2023-02-18T14:13:03.451Z,101098.41
2023-02-18T14:15:29.783Z,101098.53
2023-02-18T14:18:14.361Z,101100.00
2023-02-18T14:20:40.639Z,101104.63
2023-02-18T14:23:19.115Z,101105.66
2023-02-18T14:25:53.542Z,101106.03
2023-02-18T14:28:35.330Z,101104.25
2023-02-18T14:31:05.765Z,101099.09
2023-02-18T14:33:32.695Z,101098.06
2023-02-18T14:36:17.760Z,101094.03
2023-02-18T14:38:59.248Z,101100.63
2023-02-18T14:41:44.330Z,101095.97
2023-02-18T14:44:15.018Z,101109.69
2023-02-18T14:46:41.230Z,101107.34
2023-02-18T14:49:23.358Z,101117.81
2023-02-18T14:51:49.652Z,101112.91
2023-02-18T14:54:17.395Z,101115.09
2023-02-18T14:56:52.073Z,101107.88
2023-02-18T14:59:18.341Z,101107.84
2023-02-18T15:01:46.445Z,101110.31
2023-02-18T15:04:14.014Z,101104.97
2023-02-18T15:06:40.415Z,101102.66
2023-02-18T15:09:18.465Z,101098.25
2023-02-18T15:11:45.966Z,101104.50
2023-02-18T15:14:19.143Z,101093.34
2023-02-18T15:16:45.694Z,101096.69
2023-02-18T15:19:13.693Z,101097.22
2023-02-18T15:21:40.875Z,101097.88
2023-02-18T15:24:08.710Z,101103.56
2023-02-18T15:26:36.069Z,101096.03
2023-02-18T15:29:05.964Z,101094.75
2023-02-18T15:31:36.723Z,101098.75
2023-02-18T15:34:04.163Z,101097.09
2023-02-18T15:36:31.599Z,101096.97
2023-02-18T15:38:58.143Z,101102.38
2023-02-18T15:41:24.416Z,101100.03
2023-02-18T15:44:03.837Z,101104.25
2023-02-18T15:46:30.185Z,101090.34
2023-02-18T15:48:56.529Z,101097.63
2023-02-18T15:51:27.068Z,101101.09
2023-02-18T15:53:54.488Z,101103.28
2023-02-18T15:56:29.655Z,101094.50
2023-02-18T15:59:14.783Z,101091.53
2023-02-18T16:01:41.111Z,101088.53
2023-02-18T16:04:08.187Z,101081.94
2023-02-18T16:06:35.795Z,101081.41
2023-02-18T16:09:18.281Z,101085.22
2023-02-18T16:11:48.822Z,101086.81
2023-02-18T16:14:24.242Z,101094.56
2023-02-18T16:17:16.888Z,101097.97
2023-02-18T16:19:46.962Z,101098.97
2023-02-18T16:22:41.310Z,101083.19
2023-02-18T16:25:13.526Z,101089.53
2023-02-18T16:27:47.700Z,101087.06
2023-02-18T16:30:16.990Z,101096.13
2023-02-18T16:32:43.569Z,101088.63
2023-02-18T16:35:09.918Z,101083.19
2023-02-18T16:37:39.177Z,101097.41
2023-02-18T16:40:17.046Z,101098.69
2023-02-18T16:42:43.325Z,101090.81
2023-02-18T16:45:11.995Z,101090.56
2023-02-18T16:47:38.594Z,101097.94
2023-02-18T16:50:05.153Z,101096.91
2023-02-18T16:52:31.425Z,101097.41
2023-02-18T16:54:58.090Z,101099.75
2023-02-18T16:57:24.392Z,101106.56
2023-02-18T16:59:50.704Z,101095.22
2023-02-18T17:02:18.471Z,101095.59
2023-02-18T17:04:44.752Z,101095.47
2023-02-18T17:07:11.125Z,101106.84
2023-02-18T17:09:37.407Z,101116.22
2023-02-18T17:12:03.708Z,101117.31
2023-02-18T17:14:29.982Z,101121.75
2023-02-18T17:16:56.250Z,101112.69
2023-02-18T17:19:22.768Z,101106.34
2023-02-18T17:21:49.205Z,101115.50
2023-02-18T17:24:17.424Z,101120.56
2023-02-18T17:26:43.769Z,101112.69
2023-02-18T17:29:10.117Z,101114.97
2023-02-18T17:31:37.248Z,101123.91
2023-02-18T17:34:07.500Z,101124.44
2023-02-18T17:36:33.775Z,101115.91
2023-02-18T17:39:02.504Z,101138.38
2023-02-18T17:41:28.960Z,101138.13
2023-02-18T17:43:55.280Z,101132.69
2023-02-18T17:46:22.029Z,101141.09
2023-02-18T17:48:48.440Z,101134.38
2023-02-18T17:51:17.769Z,101126.31
2023-02-18T17:53:44.121Z,101134.38
2023-02-18T17:56:11.006Z,101125.44
2023-02-18T17:58:37.384Z,101121.69
2023-02-18T18:01:03.705Z,101117.03
2023-02-18T18:03:30.027Z,101111.78
2023-02-18T18:05:57.498Z,101120.97
2023-02-18T18:08:23.836Z,101128.38
2023-02-18T18:10:51.587Z,101124.56
2023-02-18T18:13:25.259Z,101125.91
2023-02-18T18:15:51.601Z,101123.19
2023-02-18T18:18:18.407Z,101111.38
2023-02-18T18:20:48.889Z,101111.44
2023-02-18T18:23:16.047Z,101118.38
2023-02-18T18:25:43.693Z,101110.09
2023-02-18T18:28:10.234Z,101116.91
2023-02-18T18:30:37.913Z,101113.69
2023-02-18T18:33:06.040Z,101114.22
2023-02-18T18:35:33.908Z,101114.56
2023-02-18T18:38:02.137Z,101118.34
2023-02-18T18:40:29.913Z,101121.22
2023-02-18T18:42:56.602Z,101119.25
2023-02-18T18:45:24.437Z,101117.31
2023-02-18T18:47:51.673Z,101119.91
2023-02-18T18:50:18.538Z,101119.38
2023-02-18T18:52:44.947Z,101126.09
2023-02-18T18:55:30.760Z,101128.44
2023-02-18T18:57:57.440Z,101125.84
2023-02-18T19:00:25.699Z,101114.56
2023-02-18T19:02:52.052Z,101112.72
2023-02-18T19:05:19.974Z,101114.72
2023-02-18T19:07:46.418Z,101107.84
2023-02-18T19:10:12.744Z,101107.97
2023-02-18T19:12:39.054Z,101100.56
2023-02-18T19:15:05.416Z,101104.38
2023-02-18T19:17:31.697Z,101102.44
2023-02-18T19:19:58.021Z,101100.09
2023-02-18T19:22:24.308Z,101099.38
2023-02-18T19:24:50.592Z,101097.69
2023-02-18T19:27:17.180Z,101101.97
2023-02-18T19:29:43.484Z,101101.56
2023-02-18T19:32:09.809Z,101109.38
2023-02-18T19:34:36.131Z,101106.91
2023-02-18T19:37:02.605Z,101108.31
2023-02-18T19:39:28.890Z,101108.84
2023-02-18T19:41:55.167Z,101107.44
2023-02-18T19:44:21.444Z,101111.31
2023-02-18T19:46:47.781Z,101110.94
2023-02-18T19:49:14.125Z,101111.19
2023-02-18T19:51:40.412Z,101120.25
2023-02-18T19:54:06.715Z,101120.72
2023-02-18T19:56:33.006Z,101118.44
2023-02-18T19:58:59.290Z,101109.09
2023-02-18T20:01:25.679Z,101115.06
2023-02-18T20:03:51.969Z,101112.34
2023-02-18T20:06:18.956Z,101109.91
2023-02-18T20:08:45.568Z,101108.09
2023-02-18T20:11:12.050Z,101103.56
2023-02-18T20:13:38.406Z,101110.44
2023-02-18T20:16:08.611Z,101099.03
2023-02-18T20:18:35.152Z,101107.31
2023-02-18T20:21:01.487Z,101106.78
2023-02-18T20:23:27.765Z,101103.69
2023-02-18T20:25:54.064Z,101099.28
2023-02-18T20:28:20.326Z,101093.50
2023-02-18T20:30:46.611Z,101094.91
2023-02-18T20:33:12.894Z,101092.31
2023-02-18T20:35:39.172Z,101095.91
2023-02-18T20:38:05.438Z,101086.09
2023-02-18T20:40:32.235Z,101082.75
2023-02-18T20:42:58.516Z,101084.81
2023-02-18T20:45:24.840Z,101081.69
2023-02-18T20:47:51.132Z,101080.69
2023-02-18T20:50:17.459Z,101067.00
2023-02-18T20:52:43.806Z,101071.25
2023-02-18T20:55:10.071Z,101070.34
2023-02-18T20:57:36.414Z,101077.97
2023-02-18T21:00:04.133Z,101073.94
2023-02-18T21:02:30.464Z,101069.19
2023-02-18T21:04:56.744Z,101070.59
2023-02-18T21:07:23.027Z,101074.59
2023-02-18T21:09:49.290Z,101059.84
2023-02-18T21:12:15.639Z,101063.66
2023-02-18T21:14:41.907Z,101056.50
2023-02-18T21:17:09.581Z,101056.13
2023-02-18T21:19:35.944Z,101050.72
2023-02-18T21:22:02.257Z,101055.50
2023-02-18T21:24:28.588Z,101052.25
2023-02-18T21:26:54.894Z,101049.25
2023-02-18T21:29:21.164Z,101042.91
2023-02-18T21:31:47.511Z,101036.63
2023-02-18T21:34:13.982Z,101037.88
2023-02-18T21:36:40.337Z,101035.91
2023-02-18T21:39:07.306Z,101033.09
2023-02-18T21:41:33.908Z,101029.06
2023-02-18T21:44:00.185Z,101030.63
2023-02-18T21:46:27.733Z,101028.44
2023-02-18T21:49:05.544Z,101037.63
2023-02-18T21:51:50.481Z,101028.28
2023-02-18T21:54:17.355Z,101035.63
2023-02-18T21:56:43.651Z,101034.09
2023-02-18T21:59:09.921Z,101026.44
2023-02-18T22:01:36.204Z,101025.97
2023-02-18T22:04:02.504Z,101029.44
2023-02-18T22:06:28.788Z,101028.69
2023-02-18T22:08:55.092Z,101027.59
2023-02-18T22:11:21.362Z,101021.69
2023-02-18T22:13:47.656Z,101028.16
2023-02-18T22:16:14.019Z,101031.50
2023-02-18T22:18:40.346Z,101022.97
2023-02-18T22:21:07.582Z,101009.38
2023-02-18T22:23:34.055Z,101003.06
2023-02-18T22:26:06.798Z,101006.06
2023-02-18T22:28:33.364Z,101005.94
2023-02-18T22:30:59.646Z,100994.13
2023-02-18T22:33:26.545Z,100998.31
2023-02-18T22:35:52.857Z,100991.72
2023-02-18T22:38:19.130Z,100998.03
2023-02-18T22:40:45.410Z,100997.44
2023-02-18T22:43:11.703Z,100990.16
2023-02-18T22:45:38.047Z,100985.50
2023-02-18T22:48:04.387Z,100984.75
2023-02-18T22:50:30.667Z,100976.22
2023-02-18T22:52:56.944Z,100980.22
2023-02-18T22:55:23.219Z,100974.16
2023-02-18T22:57:49.502Z,100973.38
2023-02-18T23:00:15.788Z,100957.88
2023-02-18T23:02:42.075Z,100966.94
2023-02-18T23:05:08.369Z,100985.50
2023-02-18T23:07:34.653Z,100990.94
2023-02-18T23:10:00.911Z,100979.41
2023-02-18T23:12:27.216Z,100956.16
2023-02-18T23:14:53.478Z,100955.28
2023-02-18T23:17:19.803Z,100948.38
2023-02-18T23:19:50.061Z,100961.97
2023-02-18T23:22:20.440Z,100960.28
2023-02-18T23:24:46.725Z,100961.06
2023-02-18T23:27:13.730Z,100960.09
2023-02-18T23:29:40.081Z,100959.91
2023-02-18T23:32:06.462Z,100953.72
2023-02-18T23:34:32.879Z,100952.97
2023-02-18T23:36:59.198Z,100948.31
2023-02-18T23:39:25.484Z,100947.56
2023-02-18T23:41:51.949Z,100946.03
2023-02-18T23:44:19.199Z,100955.47
2023-02-18T23:46:45.690Z,100955.19
2023-02-18T23:49:19.017Z,100959.59
2023-02-18T23:51:45.296Z,100938.03
2023-02-18T23:54:11.713Z,100941.63
2023-02-18T23:56:37.994Z,100952.78
2023-02-18T23:59:04.449Z,100954.19
